sensor_id;sensor_type;location;lat;lon;timestamp;temperature;humidity
44723;DHT22;30451;48.638;10.624;2023-03-01T00:01:19;20.80;45.80
44723;DHT22;30451;48.638;10.624;2023-03-01T00:03:45;20.70;45.70
44723;DHT22;30451;48.638;10.624;2023-03-01T00:06:11;20.70;45.70
44723;DHT22;30451;48.638;10.624;2023-03-01T00:08:37;20.70;45.70
44723;DHT22;30451;48.638;10.624;2023-03-01T00:11:30;20.70;45.70
44723;DHT22;30451;48.638;10.624;2023-03-01T00:13:58;20.70;45.70
44723;DHT22;30451;48.638;10.624;2023-03-01T00:16:30;20.70;45.70
44723;DHT22;30451;48.638;10.624;2023-03-01T00:18:57;20.70;45.70
44723;DHT22;30451;48.638;10.624;2023-03-01T00:21:23;20.70;45.70
44723;DHT22;30451;48.638;10.624;2023-03-01T00:23:49;20.70;45.70
44723;DHT22;30451;48.638;10.624;2023-03-01T00:26:16;20.60;45.70
44723;DHT22;30451;48.638;10.624;2023-03-01T00:28:43;20.60;45.70
44723;DHT22;30451;48.638;10.624;2023-03-01T00:31:15;20.60;45.70
44723;DHT22;30451;48.638;10.624;2023-03-01T00:33:41;20.60;45.70
44723;DHT22;30451;48.638;10.624;2023-03-01T00:36:08;20.60;45.70
44723;DHT22;30451;48.638;10.624;2023-03-01T00:38:35;20.60;45.70
44723;DHT22;30451;48.638;10.624;2023-03-01T00:41:06;20.60;46.20
44723;DHT22;30451;48.638;10.624;2023-03-01T00:43:32;20.60;45.70
44723;DHT22;30451;48.638;10.624;2023-03-01T00:46:06;20.60;45.70
44723;DHT22;30451;48.638;10.624;2023-03-01T00:48:33;20.50;45.70
44723;DHT22;30451;48.638;10.624;2023-03-01T00:51:05;20.60;45.70
44723;DHT22;30451;48.638;10.624;2023-03-01T00:53:31;20.50;45.70
44723;DHT22;30451;48.638;10.624;2023-03-01T00:55:57;20.50;45.70
44723;DHT22;30451;48.638;10.624;2023-03-01T00:58:24;20.50;45.70
44723;DHT22;30451;48.638;10.624;2023-03-01T01:00:49;20.50;45.70
44723;DHT22;30451;48.638;10.624;2023-03-01T01:03:15;20.50;45.70
44723;DHT22;30451;48.638;10.624;2023-03-01T01:05:41;20.50;45.70
44723;DHT22;30451;48.638;10.624;2023-03-01T01:08:06;20.50;45.70
44723;DHT22;30451;48.638;10.624;2023-03-01T01:10:34;20.50;45.70
44723;DHT22;30451;48.638;10.624;2023-03-01T01:13:00;20.50;45.70
44723;DHT22;30451;48.638;10.624;2023-03-01T01:15:26;20.40;45.70
44723;DHT22;30451;48.638;10.624;2023-03-01T01:17:51;20.40;45.70
44723;DHT22;30451;48.638;10.624;2023-03-01T01:20:17;20.40;45.70
44723;DHT22;30451;48.638;10.624;2023-03-01T01:22:43;20.40;46.20
44723;DHT22;30451;48.638;10.624;2023-03-01T01:25:09;20.40;45.70
44723;DHT22;30451;48.638;10.624;2023-03-01T01:27:34;20.40;45.70
44723;DHT22;30451;48.638;10.624;2023-03-01T01:30:00;20.40;45.70
44723;DHT22;30451;48.638;10.624;2023-03-01T01:32:26;20.40;45.70
44723;DHT22;30451;48.638;10.624;2023-03-01T01:34:51;20.40;45.70
44723;DHT22;30451;48.638;10.624;2023-03-01T01:37:17;20.40;45.80
44723;DHT22;30451;48.638;10.624;2023-03-01T01:39:42;20.40;45.80
44723;DHT22;30451;48.638;10.624;2023-03-01T01:42:27;20.40;45.80
44723;DHT22;30451;48.638;10.624;2023-03-01T01:47:49;20.30;45.70
44723;DHT22;30451;48.638;10.624;2023-03-01T01:50:18;20.30;45.70
44723;DHT22;30451;48.638;10.624;2023-03-01T01:52:45;20.30;45.70
44723;DHT22;30451;48.638;10.624;2023-03-01T01:55:17;20.30;45.70
44723;DHT22;30451;48.638;10.624;2023-03-01T01:57:49;20.30;45.80
44723;DHT22;30451;48.638;10.624;2023-03-01T02:00:20;20.30;45.80
44723;DHT22;30451;48.638;10.624;2023-03-01T02:02:48;20.30;45.80
44723;DHT22;30451;48.638;10.624;2023-03-01T02:05:33;20.30;45.70
44723;DHT22;30451;48.638;10.624;2023-03-01T02:08:00;20.30;45.80
44723;DHT22;30451;48.638;10.624;2023-03-01T02:10:27;20.20;45.70
44723;DHT22;30451;48.638;10.624;2023-03-01T02:12:54;20.20;45.80
44723;DHT22;30451;48.638;10.624;2023-03-01T02:15:22;20.20;46.30
44723;DHT22;30451;48.638;10.624;2023-03-01T02:17:48;20.20;45.80
44723;DHT22;30451;48.638;10.624;2023-03-01T02:20:33;20.20;45.80
44723;DHT22;30451;48.638;10.624;2023-03-01T02:23:00;20.20;45.80
44723;DHT22;30451;48.638;10.624;2023-03-01T02:25:58;20.20;45.80
44723;DHT22;30451;48.638;10.624;2023-03-01T02:28:34;20.20;45.80
44723;DHT22;30451;48.638;10.624;2023-03-01T02:31:02;20.20;45.80
44723;DHT22;30451;48.638;10.624;2023-03-01T02:33:47;20.20;45.90
44723;DHT22;30451;48.638;10.624;2023-03-01T02:36:19;20.10;45.80
44723;DHT22;30451;48.638;10.624;2023-03-01T02:38:46;20.10;45.80
44723;DHT22;30451;48.638;10.624;2023-03-01T02:41:16;20.10;45.80
44723;DHT22;30451;48.638;10.624;2023-03-01T02:43:43;20.10;45.80
44723;DHT22;30451;48.638;10.624;2023-03-01T02:46:15;20.10;45.80
44723;DHT22;30451;48.638;10.624;2023-03-01T02:49:20;20.10;45.90
44723;DHT22;30451;48.638;10.624;2023-03-01T02:56:59;20.10;45.90
44723;DHT22;30451;48.638;10.624;2023-03-01T02:59:29;20.10;45.90
44723;DHT22;30451;48.638;10.624;2023-03-01T03:01:56;20.00;45.80
44723;DHT22;30451;48.638;10.624;2023-03-01T03:04:22;20.10;45.90
44723;DHT22;30451;48.638;10.624;2023-03-01T03:06:49;20.00;45.80
44723;DHT22;30451;48.638;10.624;2023-03-01T03:09:17;20.00;45.80
44723;DHT22;30451;48.638;10.624;2023-03-01T03:11:43;20.00;45.90
44723;DHT22;30451;48.638;10.624;2023-03-01T03:14:13;20.00;45.90
44723;DHT22;30451;48.638;10.624;2023-03-01T03:16:44;20.00;45.90
44723;DHT22;30451;48.638;10.624;2023-03-01T03:19:11;20.00;45.90
44723;DHT22;30451;48.638;10.624;2023-03-01T03:21:37;20.00;45.90
44723;DHT22;30451;48.638;10.624;2023-03-01T03:24:03;20.00;45.90
44723;DHT22;30451;48.638;10.624;2023-03-01T03:26:29;20.00;46.00
44723;DHT22;30451;48.638;10.624;2023-03-01T03:28:55;19.90;45.90
44723;DHT22;30451;48.638;10.624;2023-03-01T03:31:21;19.90;45.90
44723;DHT22;30451;48.638;10.624;2023-03-01T03:33:47;20.00;46.00
44723;DHT22;30451;48.638;10.624;2023-03-01T03:36:21;19.90;45.90
44723;DHT22;30451;48.638;10.624;2023-03-01T03:38:47;19.90;45.90
44723;DHT22;30451;48.638;10.624;2023-03-01T03:41:13;19.90;46.00
44723;DHT22;30451;48.638;10.624;2023-03-01T03:43:40;19.90;46.00
44723;DHT22;30451;48.638;10.624;2023-03-01T03:46:08;19.90;45.90
44723;DHT22;30451;48.638;10.624;2023-03-01T03:48:45;19.90;46.00
44723;DHT22;30451;48.638;10.624;2023-03-01T03:51:16;19.90;46.00
44723;DHT22;30451;48.638;10.624;2023-03-01T03:53:43;19.90;46.00
44723;DHT22;30451;48.638;10.624;2023-03-01T03:56:08;19.90;46.00
44723;DHT22;30451;48.638;10.624;2023-03-01T03:58:34;19.80;45.90
44723;DHT22;30451;48.638;10.624;2023-03-01T04:01:00;19.90;46.00
44723;DHT22;30451;48.638;10.624;2023-03-01T04:03:27;19.90;46.00
44723;DHT22;30451;48.638;10.624;2023-03-01T04:05:53;19.90;46.00
44723;DHT22;30451;48.638;10.624;2023-03-01T04:08:21;19.90;46.00
44723;DHT22;30451;48.638;10.624;2023-03-01T04:10:50;19.90;46.00
44723;DHT22;30451;48.638;10.624;2023-03-01T04:13:18;19.90;46.10
44723;DHT22;30451;48.638;10.624;2023-03-01T04:15:46;19.80;46.00
44723;DHT22;30451;48.638;10.624;2023-03-01T04:18:13;19.90;46.10
44723;DHT22;30451;48.638;10.624;2023-03-01T04:20:39;19.80;46.00
44723;DHT22;30451;48.638;10.624;2023-03-01T04:23:10;19.90;46.10
44723;DHT22;30451;48.638;10.624;2023-03-01T04:25:40;19.80;46.50
44723;DHT22;30451;48.638;10.624;2023-03-01T04:28:06;19.80;46.00
44723;DHT22;30451;48.638;10.624;2023-03-01T04:30:34;19.80;46.00
44723;DHT22;30451;48.638;10.624;2023-03-01T04:33:02;19.80;46.00
44723;DHT22;30451;48.638;10.624;2023-03-01T04:35:29;19.80;46.10
44723;DHT22;30451;48.638;10.624;2023-03-01T04:37:55;19.80;46.10
44723;DHT22;30451;48.638;10.624;2023-03-01T04:40:20;19.80;46.10
44723;DHT22;30451;48.638;10.624;2023-03-01T04:42:46;19.80;46.10
44723;DHT22;30451;48.638;10.624;2023-03-01T04:45:12;19.80;46.10
44723;DHT22;30451;48.638;10.624;2023-03-01T04:47:39;19.80;46.10
44723;DHT22;30451;48.638;10.624;2023-03-01T04:50:06;19.80;46.60
44723;DHT22;30451;48.638;10.624;2023-03-01T04:52:31;19.80;46.10
44723;DHT22;30451;48.638;10.624;2023-03-01T04:54:57;19.80;46.10
44723;DHT22;30451;48.638;10.624;2023-03-01T04:57:22;19.80;46.10
44723;DHT22;30451;48.638;10.624;2023-03-01T04:59:48;19.80;46.10
44723;DHT22;30451;48.638;10.624;2023-03-01T05:02:13;19.80;46.10
44723;DHT22;30451;48.638;10.624;2023-03-01T05:04:39;19.80;46.70
44723;DHT22;30451;48.638;10.624;2023-03-01T05:07:05;19.80;46.10
44723;DHT22;30451;48.638;10.624;2023-03-01T05:09:30;19.80;46.10
44723;DHT22;30451;48.638;10.624;2023-03-01T05:11:56;19.80;46.10
44723;DHT22;30451;48.638;10.624;2023-03-01T05:14:21;19.80;46.10
44723;DHT22;30451;48.638;10.624;2023-03-01T05:16:48;19.70;46.10
44723;DHT22;30451;48.638;10.624;2023-03-01T05:19:13;19.70;46.20
44723;DHT22;30451;48.638;10.624;2023-03-01T05:21:47;19.80;46.20
44723;DHT22;30451;48.638;10.624;2023-03-01T05:24:35;19.70;46.20
44723;DHT22;30451;48.638;10.624;2023-03-01T05:27:01;19.70;46.20
44723;DHT22;30451;48.638;10.624;2023-03-01T05:29:28;19.70;46.20
44723;DHT22;30451;48.638;10.624;2023-03-01T05:31:56;19.70;46.20
44723;DHT22;30451;48.638;10.624;2023-03-01T05:34:41;19.70;46.20
44723;DHT22;30451;48.638;10.624;2023-03-01T05:37:07;19.70;46.20
44723;DHT22;30451;48.638;10.624;2023-03-01T05:39:33;19.70;46.30
44723;DHT22;30451;48.638;10.624;2023-03-01T05:42:00;19.70;46.30
44723;DHT22;30451;48.638;10.624;2023-03-01T05:44:27;19.70;46.30
44723;DHT22;30451;48.638;10.624;2023-03-01T05:46:53;19.70;46.30
44723;DHT22;30451;48.638;10.624;2023-03-01T05:49:19;19.70;46.90
44723;DHT22;30451;48.638;10.624;2023-03-01T05:51:50;19.70;46.50
44723;DHT22;30451;48.638;10.624;2023-03-01T05:54:17;19.70;47.20
44723;DHT22;30451;48.638;10.624;2023-03-01T05:56:43;19.70;46.80
44723;DHT22;30451;48.638;10.624;2023-03-01T05:59:09;19.70;46.90
44723;DHT22;30451;48.638;10.624;2023-03-01T06:01:35;19.70;47.00
44723;DHT22;30451;48.638;10.624;2023-03-01T06:04:02;19.70;47.10
44723;DHT22;30451;48.638;10.624;2023-03-01T06:06:28;19.70;47.20
44723;DHT22;30451;48.638;10.624;2023-03-01T06:08:54;19.70;47.30
44723;DHT22;30451;48.638;10.624;2023-03-01T06:11:20;19.70;47.30
44723;DHT22;30451;48.638;10.624;2023-03-01T06:13:46;19.70;47.40
44723;DHT22;30451;48.638;10.624;2023-03-01T06:16:12;19.70;47.80
44723;DHT22;30451;48.638;10.624;2023-03-01T06:18:38;19.70;48.00
44723;DHT22;30451;48.638;10.624;2023-03-01T06:21:05;19.80;47.70
44723;DHT22;30451;48.638;10.624;2023-03-01T06:23:31;19.90;47.70
44723;DHT22;30451;48.638;10.624;2023-03-01T06:25:57;20.00;47.30
44723;DHT22;30451;48.638;10.624;2023-03-01T06:28:23;20.00;47.30
44723;DHT22;30451;48.638;10.624;2023-03-01T06:30:50;20.10;47.20
44723;DHT22;30451;48.638;10.624;2023-03-01T06:33:17;20.20;47.50
44723;DHT22;30451;48.638;10.624;2023-03-01T06:35:44;20.30;46.90
44723;DHT22;30451;48.638;10.624;2023-03-01T06:38:10;20.30;46.80
44723;DHT22;30451;48.638;10.624;2023-03-01T06:40:35;20.40;46.70
44723;DHT22;30451;48.638;10.624;2023-03-01T06:43:01;20.50;46.60
44723;DHT22;30451;48.638;10.624;2023-03-01T06:45:27;20.50;46.40
44723;DHT22;30451;48.638;10.624;2023-03-01T06:47:52;20.60;46.30
44723;DHT22;30451;48.638;10.624;2023-03-01T06:50:26;20.60;46.30
44723;DHT22;30451;48.638;10.624;2023-03-01T06:52:55;20.60;46.30
44723;DHT22;30451;48.638;10.624;2023-03-01T06:55:21;20.60;46.20
44723;DHT22;30451;48.638;10.624;2023-03-01T06:57:47;20.60;46.20
44723;DHT22;30451;48.638;10.624;2023-03-01T07:00:13;20.70;46.20
44723;DHT22;30451;48.638;10.624;2023-03-01T07:02:39;20.70;46.10
44723;DHT22;30451;48.638;10.624;2023-03-01T07:05:04;20.80;46.00
44723;DHT22;30451;48.638;10.624;2023-03-01T07:07:30;20.80;46.00
44723;DHT22;30451;48.638;10.624;2023-03-01T07:09:56;20.90;46.70
44723;DHT22;30451;48.638;10.624;2023-03-01T07:12:22;21.20;46.50
44723;DHT22;30451;48.638;10.624;2023-03-01T07:14:47;21.30;46.50
44723;DHT22;30451;48.638;10.624;2023-03-01T07:17:13;21.40;46.30
44723;DHT22;30451;48.638;10.624;2023-03-01T07:19:39;21.40;46.40
44723;DHT22;30451;48.638;10.624;2023-03-01T07:22:04;21.40;46.80
44723;DHT22;30451;48.638;10.624;2023-03-01T07:24:33;21.40;47.20
44723;DHT22;30451;48.638;10.624;2023-03-01T07:26:59;21.60;47.20
44723;DHT22;30451;48.638;10.624;2023-03-01T07:29:24;21.90;47.00
44723;DHT22;30451;48.638;10.624;2023-03-01T07:31:50;22.10;47.00
44723;DHT22;30451;48.638;10.624;2023-03-01T07:34:15;22.10;46.90
44723;DHT22;30451;48.638;10.624;2023-03-01T07:36:41;22.10;47.30
44723;DHT22;30451;48.638;10.624;2023-03-01T07:39:09;22.10;47.20
44723;DHT22;30451;48.638;10.624;2023-03-01T07:41:35;22.00;47.40
44723;DHT22;30451;48.638;10.624;2023-03-01T07:44:01;22.10;47.80
44723;DHT22;30451;48.638;10.624;2023-03-01T07:46:26;22.20;47.70
44723;DHT22;30451;48.638;10.624;2023-03-01T07:48:52;22.20;48.20
44723;DHT22;30451;48.638;10.624;2023-03-01T07:51:18;22.30;47.90
44723;DHT22;30451;48.638;10.624;2023-03-01T07:53:46;22.30;48.70
44723;DHT22;30451;48.638;10.624;2023-03-01T07:56:14;22.30;48.40
44723;DHT22;30451;48.638;10.624;2023-03-01T07:58:43;22.30;48.90
44723;DHT22;30451;48.638;10.624;2023-03-01T08:01:11;22.40;47.90
44723;DHT22;30451;48.638;10.624;2023-03-01T08:03:38;22.30;45.30
44723;DHT22;30451;48.638;10.624;2023-03-01T08:06:06;22.30;45.20
44723;DHT22;30451;48.638;10.624;2023-03-01T08:08:32;22.30;44.80
44723;DHT22;30451;48.638;10.624;2023-03-01T08:11:02;22.30;45.10
44723;DHT22;30451;48.638;10.624;2023-03-01T08:13:28;22.30;44.60
44723;DHT22;30451;48.638;10.624;2023-03-01T08:15:54;22.30;44.30
44723;DHT22;30451;48.638;10.624;2023-03-01T08:18:20;22.40;44.30
44723;DHT22;30451;48.638;10.624;2023-03-01T08:20:46;22.40;44.90
44723;DHT22;30451;48.638;10.624;2023-03-01T08:23:13;22.40;46.50
44723;DHT22;30451;48.638;10.624;2023-03-01T08:25:39;22.40;46.40
44723;DHT22;30451;48.638;10.624;2023-03-01T08:28:05;22.50;47.90
44723;DHT22;30451;48.638;10.624;2023-03-01T08:30:30;22.50;47.50
44723;DHT22;30451;48.638;10.624;2023-03-01T08:32:56;22.60;48.60
44723;DHT22;30451;48.638;10.624;2023-03-01T08:35:22;22.60;49.20
44723;DHT22;30451;48.638;10.624;2023-03-01T08:37:48;22.60;48.80
44723;DHT22;30451;48.638;10.624;2023-03-01T08:40:14;22.70;49.30
44723;DHT22;30451;48.638;10.624;2023-03-01T08:42:41;22.70;49.30
44723;DHT22;30451;48.638;10.624;2023-03-01T08:45:09;22.70;49.90
44723;DHT22;30451;48.638;10.624;2023-03-01T08:47:35;22.80;50.60
44723;DHT22;30451;48.638;10.624;2023-03-01T08:50:01;22.80;42.20
44723;DHT22;30451;48.638;10.624;2023-03-01T08:52:26;22.70;36.40
44723;DHT22;30451;48.638;10.624;2023-03-01T08:54:53;22.50;34.00
44723;DHT22;30451;48.638;10.624;2023-03-01T08:57:18;22.40;33.50
44723;DHT22;30451;48.638;10.624;2023-03-01T08:59:44;22.20;32.30
44723;DHT22;30451;48.638;10.624;2023-03-01T09:02:14;22.10;30.90
44723;DHT22;30451;48.638;10.624;2023-03-01T09:04:40;22.00;33.00
44723;DHT22;30451;48.638;10.624;2023-03-01T09:07:06;22.00;35.60
44723;DHT22;30451;48.638;10.624;2023-03-01T09:09:32;22.00;34.70
44723;DHT22;30451;48.638;10.624;2023-03-01T09:11:58;21.80;31.50
44723;DHT22;30451;48.638;10.624;2023-03-01T09:14:23;21.60;28.00
44723;DHT22;30451;48.638;10.624;2023-03-01T09:16:50;21.30;27.20
44723;DHT22;30451;48.638;10.624;2023-03-01T09:19:15;21.00;27.00
44723;DHT22;30451;48.638;10.624;2023-03-01T09:21:41;20.90;28.00
44723;DHT22;30451;48.638;10.624;2023-03-01T09:24:22;20.90;29.50
44723;DHT22;30451;48.638;10.624;2023-03-01T09:26:48;21.00;30.00
44723;DHT22;30451;48.638;10.624;2023-03-01T09:29:15;21.00;30.60
44723;DHT22;30451;48.638;10.624;2023-03-01T09:31:42;21.10;31.20
44723;DHT22;30451;48.638;10.624;2023-03-01T09:34:08;21.10;31.90
44723;DHT22;30451;48.638;10.624;2023-03-01T09:36:34;21.10;32.60
44723;DHT22;30451;48.638;10.624;2023-03-01T09:39:01;21.20;33.30
44723;DHT22;30451;48.638;10.624;2023-03-01T09:41:46;21.20;33.70
44723;DHT22;30451;48.638;10.624;2023-03-01T09:44:44;21.20;34.20
44723;DHT22;30451;48.638;10.624;2023-03-01T09:47:24;21.20;34.60
44723;DHT22;30451;48.638;10.624;2023-03-01T09:50:17;21.20;35.00
44723;DHT22;30451;48.638;10.624;2023-03-01T09:55:56;21.20;35.40
44723;DHT22;30451;48.638;10.624;2023-03-01T09:58:51;21.30;35.90
44723;DHT22;30451;48.638;10.624;2023-03-01T10:06:49;21.30;36.70
44723;DHT22;30451;48.638;10.624;2023-03-01T10:09:17;21.30;36.90
44723;DHT22;30451;48.638;10.624;2023-03-01T10:11:51;21.30;37.70
44723;DHT22;30451;48.638;10.624;2023-03-01T10:14:39;21.20;37.30
44723;DHT22;30451;48.638;10.624;2023-03-01T10:17:30;21.20;37.50
44723;DHT22;30451;48.638;10.624;2023-03-01T10:20:15;21.30;37.70
44723;DHT22;30451;48.638;10.624;2023-03-01T10:22:42;21.30;37.90
44723;DHT22;30451;48.638;10.624;2023-03-01T10:25:11;21.30;38.10
44723;DHT22;30451;48.638;10.624;2023-03-01T10:27:55;21.30;38.20
44723;DHT22;30451;48.638;10.624;2023-03-01T10:30:35;21.30;38.40
44723;DHT22;30451;48.638;10.624;2023-03-01T10:33:13;21.30;38.50
44723;DHT22;30451;48.638;10.624;2023-03-01T10:35:40;21.30;38.70
44723;DHT22;30451;48.638;10.624;2023-03-01T10:38:08;21.30;38.80
44723;DHT22;30451;48.638;10.624;2023-03-01T10:40:36;21.30;38.90
44723;DHT22;30451;48.638;10.624;2023-03-01T10:43:12;21.30;39.00
44723;DHT22;30451;48.638;10.624;2023-03-01T10:45:40;21.30;39.10
44723;DHT22;30451;48.638;10.624;2023-03-01T10:48:19;21.30;39.40
44723;DHT22;30451;48.638;10.624;2023-03-01T10:51:04;21.30;39.80
44723;DHT22;30451;48.638;10.624;2023-03-01T10:56:11;21.30;40.30
44723;DHT22;30451;48.638;10.624;2023-03-01T10:59:02;21.30;40.40
44723;DHT22;30451;48.638;10.624;2023-03-01T11:01:33;21.30;40.70
44723;DHT22;30451;48.638;10.624;2023-03-01T11:04:13;21.30;40.70
44723;DHT22;30451;48.638;10.624;2023-03-01T11:06:40;21.40;41.00
44723;DHT22;30451;48.638;10.624;2023-03-01T11:09:18;21.40;41.00
44723;DHT22;30451;48.638;10.624;2023-03-01T11:11:45;21.50;41.00
44723;DHT22;30451;48.638;10.624;2023-03-01T11:14:18;21.50;41.10
44723;DHT22;30451;48.638;10.624;2023-03-01T11:16:45;21.50;41.30
44723;DHT22;30451;48.638;10.624;2023-03-01T11:27:19;21.70;41.60
44723;DHT22;30451;48.638;10.624;2023-03-01T11:29:54;21.70;41.60
44723;DHT22;30451;48.638;10.624;2023-03-01T11:32:24;21.70;42.20
44723;DHT22;30451;48.638;10.624;2023-03-01T11:40:33;21.80;41.90
44723;DHT22;30451;48.638;10.624;2023-03-01T12:05:23;22.50;41.50
44723;DHT22;30451;48.638;10.624;2023-03-01T12:07:58;23.00;40.90
44723;DHT22;30451;48.638;10.624;2023-03-01T12:13:55;23.50;40.10
44723;DHT22;30451;48.638;10.624;2023-03-01T12:19:21;23.70;39.50
44723;DHT22;30451;48.638;10.624;2023-03-01T12:27:47;24.30;39.20
44723;DHT22;30451;48.638;10.624;2023-03-01T12:49:48;23.50;38.70
44723;DHT22;30451;48.638;10.624;2023-03-01T12:52:27;23.50;38.90
44723;DHT22;30451;48.638;10.624;2023-03-01T12:54:58;23.40;38.90
44723;DHT22;30451;48.638;10.624;2023-03-01T12:57:31;23.40;39.00
44723;DHT22;30451;48.638;10.624;2023-03-01T13:00:27;23.40;39.20
44723;DHT22;30451;48.638;10.624;2023-03-01T13:03:02;23.40;39.20
44723;DHT22;30451;48.638;10.624;2023-03-01T13:05:45;23.40;39.30
44723;DHT22;30451;48.638;10.624;2023-03-01T13:08:21;23.40;39.10
44723;DHT22;30451;48.638;10.624;2023-03-01T13:11:05;23.40;39.10
44723;DHT22;30451;48.638;10.624;2023-03-01T13:13:31;23.40;39.30
44723;DHT22;30451;48.638;10.624;2023-03-01T13:15:57;23.40;39.30
44723;DHT22;30451;48.638;10.624;2023-03-01T13:18:43;23.40;39.30
44723;DHT22;30451;48.638;10.624;2023-03-01T13:21:08;23.40;39.30
44723;DHT22;30451;48.638;10.624;2023-03-01T13:23:37;23.40;39.50
44723;DHT22;30451;48.638;10.624;2023-03-01T13:26:17;23.40;39.50
44723;DHT22;30451;48.638;10.624;2023-03-01T13:31:11;23.30;39.60
44723;DHT22;30451;48.638;10.624;2023-03-01T13:34:00;23.30;39.90
44723;DHT22;30451;48.638;10.624;2023-03-01T13:38:57;23.30;40.10
44723;DHT22;30451;48.638;10.624;2023-03-01T13:49:59;23.30;40.50
44723;DHT22;30451;48.638;10.624;2023-03-01T13:52:43;23.30;41.00
44723;DHT22;30451;48.638;10.624;2023-03-01T13:55:23;23.30;41.60
44723;DHT22;30451;48.638;10.624;2023-03-01T13:57:57;23.40;42.40
44723;DHT22;30451;48.638;10.624;2023-03-01T14:00:31;23.50;43.00
44723;DHT22;30451;48.638;10.624;2023-03-01T14:03:05;23.50;43.30
44723;DHT22;30451;48.638;10.624;2023-03-01T14:05:34;23.60;43.70
44723;DHT22;30451;48.638;10.624;2023-03-01T14:08:02;23.70;44.10
44723;DHT22;30451;48.638;10.624;2023-03-01T14:10:37;23.70;44.40
44723;DHT22;30451;48.638;10.624;2023-03-01T14:13:27;23.70;44.80
44723;DHT22;30451;48.638;10.624;2023-03-01T14:19:03;23.80;45.50
44723;DHT22;30451;48.638;10.624;2023-03-01T14:21:34;23.90;46.10
44723;DHT22;30451;48.638;10.624;2023-03-01T14:24:00;23.90;45.40
44723;DHT22;30451;48.638;10.624;2023-03-01T14:26:26;23.90;41.60
44723;DHT22;30451;48.638;10.624;2023-03-01T14:28:52;23.80;36.90
44723;DHT22;30451;48.638;10.624;2023-03-01T14:31:36;23.70;35.10
44723;DHT22;30451;48.638;10.624;2023-03-01T14:34:03;23.70;33.40
44723;DHT22;30451;48.638;10.624;2023-03-01T14:36:33;23.60;33.40
44723;DHT22;30451;48.638;10.624;2023-03-01T14:38:59;23.60;35.20
44723;DHT22;30451;48.638;10.624;2023-03-01T14:41:33;23.50;34.80
44723;DHT22;30451;48.638;10.624;2023-03-01T14:44:03;23.40;32.90
44723;DHT22;30451;48.638;10.624;2023-03-01T14:46:33;23.40;31.60
44723;DHT22;30451;48.638;10.624;2023-03-01T14:49:21;23.30;30.80
44723;DHT22;30451;48.638;10.624;2023-03-01T14:51:53;23.30;32.00
44723;DHT22;30451;48.638;10.624;2023-03-01T14:54:40;23.20;32.10
44723;DHT22;30451;48.638;10.624;2023-03-01T14:57:15;23.20;32.20
44723;DHT22;30451;48.638;10.624;2023-03-01T14:59:42;23.10;34.60
44723;DHT22;30451;48.638;10.624;2023-03-01T15:02:13;23.20;34.30
44723;DHT22;30451;48.638;10.624;2023-03-01T15:04:50;23.10;34.30
44723;DHT22;30451;48.638;10.624;2023-03-01T15:07:17;23.10;33.70
44723;DHT22;30451;48.638;10.624;2023-03-01T15:09:43;22.90;32.30
44723;DHT22;30451;48.638;10.624;2023-03-01T15:12:44;22.90;31.40
44723;DHT22;30451;48.638;10.624;2023-03-01T15:15:43;22.80;32.00
44723;DHT22;30451;48.638;10.624;2023-03-01T15:18:21;22.70;32.20
44723;DHT22;30451;48.638;10.624;2023-03-01T15:20:48;22.60;32.10
44723;DHT22;30451;48.638;10.624;2023-03-01T15:23:26;22.60;32.90
44723;DHT22;30451;48.638;10.624;2023-03-01T15:25:53;22.60;32.90
44723;DHT22;30451;48.638;10.624;2023-03-01T15:28:30;22.50;32.00
44723;DHT22;30451;48.638;10.624;2023-03-01T15:31:22;22.50;33.10
44723;DHT22;30451;48.638;10.624;2023-03-01T15:33:49;22.50;32.80
44723;DHT22;30451;48.638;10.624;2023-03-01T15:36:46;22.40;33.20
44723;DHT22;30451;48.638;10.624;2023-03-01T15:45:08;22.30;33.00
44723;DHT22;30451;48.638;10.624;2023-03-01T15:47:34;22.30;32.70
44723;DHT22;30451;48.638;10.624;2023-03-01T15:50:01;22.20;32.10
44723;DHT22;30451;48.638;10.624;2023-03-01T15:52:40;22.10;32.30
44723;DHT22;30451;48.638;10.624;2023-03-01T15:57:43;22.10;34.90
44723;DHT22;30451;48.638;10.624;2023-03-01T16:00:13;22.10;36.20
44723;DHT22;30451;48.638;10.624;2023-03-01T16:02:43;22.20;36.80
44723;DHT22;30451;48.638;10.624;2023-03-01T16:05:31;22.20;37.10
44723;DHT22;30451;48.638;10.624;2023-03-01T16:07:57;22.20;37.30
44723;DHT22;30451;48.638;10.624;2023-03-01T16:10:23;22.30;37.50
44723;DHT22;30451;48.638;10.624;2023-03-01T16:12:50;22.30;37.70
44723;DHT22;30451;48.638;10.624;2023-03-01T16:15:32;22.30;37.80
44723;DHT22;30451;48.638;10.624;2023-03-01T16:17:59;22.30;38.00
44723;DHT22;30451;48.638;10.624;2023-03-01T16:20:26;22.30;38.10
44723;DHT22;30451;48.638;10.624;2023-03-01T16:22:52;22.30;38.20
44723;DHT22;30451;48.638;10.624;2023-03-01T16:25:19;22.30;38.30
44723;DHT22;30451;48.638;10.624;2023-03-01T16:27:47;22.30;38.40
44723;DHT22;30451;48.638;10.624;2023-03-01T16:30:14;22.30;38.50
44723;DHT22;30451;48.638;10.624;2023-03-01T16:32:40;22.30;38.60
44723;DHT22;30451;48.638;10.624;2023-03-01T16:35:07;22.30;38.60
44723;DHT22;30451;48.638;10.624;2023-03-01T16:37:35;22.30;38.70
44723;DHT22;30451;48.638;10.624;2023-03-01T16:40:00;22.30;38.70
44723;DHT22;30451;48.638;10.624;2023-03-01T16:42:26;22.30;39.30
44723;DHT22;30451;48.638;10.624;2023-03-01T16:44:55;22.30;39.00
44723;DHT22;30451;48.638;10.624;2023-03-01T16:47:21;22.30;39.00
44723;DHT22;30451;48.638;10.624;2023-03-01T16:49:47;22.30;39.10
44723;DHT22;30451;48.638;10.624;2023-03-01T16:52:16;22.30;39.10
44723;DHT22;30451;48.638;10.624;2023-03-01T16:54:42;22.30;39.10
44723;DHT22;30451;48.638;10.624;2023-03-01T16:57:07;22.30;39.20
44723;DHT22;30451;48.638;10.624;2023-03-01T16:59:33;22.20;39.20
44723;DHT22;30451;48.638;10.624;2023-03-01T17:01:58;22.30;39.20
44723;DHT22;30451;48.638;10.624;2023-03-01T17:04:24;22.20;39.20
44723;DHT22;30451;48.638;10.624;2023-03-01T17:06:50;22.20;39.30
44723;DHT22;30451;48.638;10.624;2023-03-01T17:09:15;22.20;39.40
44723;DHT22;30451;48.638;10.624;2023-03-01T17:11:42;22.20;39.40
44723;DHT22;30451;48.638;10.624;2023-03-01T17:14:08;22.20;39.50
44723;DHT22;30451;48.638;10.624;2023-03-01T17:16:34;22.20;39.50
44723;DHT22;30451;48.638;10.624;2023-03-01T17:19:00;22.20;39.60
44723;DHT22;30451;48.638;10.624;2023-03-01T17:21:26;22.10;39.60
44723;DHT22;30451;48.638;10.624;2023-03-01T17:23:56;22.20;39.70